Time;durP1;ratioP1;P1;durP2;ratioP2;P2;SDS_P1;SDS_P2;PMS_P1;PMS_P2;Temp;Humidity;BMP_temperature;BMP_pressure;BME280_temperature;BME280_humidity;BME280_pressure;Samples;Min_cycle;Max_cycle;Signal;HPM_P1;HPM_P2
2022/08/31 00:05:40;;;;;;;7.40;4.27;;;;;;;21.81;49.62;98161.28;8485512;28;20228;-73
2022/08/31 00:09:44;;;;;;;6.93;4.00;;;;;;;21.89;49.25;98154.50;8485323;28;20533;-74
2022/08/31 00:13:47;;;;;;;7.27;4.00;;;;;;;21.90;49.19;98162.28;8485111;28;20501;-73
2022/08/31 00:17:51;;;;;;;11.73;4.17;;;;;;;21.86;49.41;98161.72;8485343;28;20538;-74
2022/08/31 00:21:54;;;;;;;7.20;4.43;;;;;;;21.86;49.62;98161.72;8485237;27;20226;-72
2022/08/31 00:25:58;;;;;;;6.17;3.87;;;;;;;21.76;49.80;98145.06;8484973;27;20240;-73
2022/08/31 00:30:01;;;;;;;7.93;4.00;;;;;;;21.79;49.42;98143.94;8485169;28;20263;-74
2022/08/31 00:34:04;;;;;;;6.10;4.50;;;;;;;21.78;49.40;98151.03;8484818;27;20527;-73
2022/08/31 00:38:08;;;;;;;5.73;3.90;;;;;;;21.78;49.52;98155.44;8484803;28;20248;-74
2022/08/31 00:42:12;;;;;;;7.77;4.07;;;;;;;21.93;49.05;98154.09;8484300;28;20260;-73
2022/08/31 00:46:17;;;;;;;7.60;4.17;;;;;;;21.81;48.99;98153.38;8484614;28;20413;-74
2022/08/31 00:50:22;;;;;;;5.87;4.40;;;;;;;21.75;49.17;98140.75;8484260;28;20240;-73
2022/08/31 00:54:28;;;;;;;6.00;4.30;;;;;;;21.78;48.89;98143.13;8484133;27;20229;-73
2022/08/31 00:58:32;;;;;;;5.60;3.90;;;;;;;21.85;48.95;98143.41;8484302;28;20224;-73
2022/08/31 01:02:35;;;;;;;7.27;3.93;;;;;;;21.86;48.92;98145.06;8483790;28;20233;-74
2022/08/31 01:06:39;;;;;;;6.10;4.33;;;;;;;21.92;49.08;98133.16;8483785;28;20217;-74
2022/08/31 01:10:44;;;;;;;6.23;4.60;;;;;;;21.79;49.38;98126.31;8483748;28;20224;-74
2022/08/31 01:14:48;;;;;;;6.17;4.40;;;;;;;21.84;49.13;98132.03;8483653;27;20426;-74
2022/08/31 01:18:52;;;;;;;7.20;4.30;;;;;;;21.66;49.68;98134.47;8483095;27;20396;-74
2022/08/31 01:23:10;;;;;;;6.67;4.30;;;;;;;21.61;49.62;98139.31;8483096;28;20228;-74
2022/08/31 01:27:14;;;;;;;7.10;4.43;;;;;;;21.58;49.91;98142.22;8483295;27;20225;-73
2022/08/31 01:31:21;;;;;;;7.70;4.30;;;;;;;21.58;50.00;98146.66;8483120;28;20234;-74
2022/08/31 01:35:24;;;;;;;5.47;4.67;;;;;;;21.55;50.20;98147.75;8482816;27;20294;-73
2022/08/31 01:39:31;;;;;;;8.50;4.83;;;;;;;21.55;49.95;98150.41;8482446;27;20427;-74
2022/08/31 01:43:35;;;;;;;6.27;4.63;;;;;;;21.59;49.97;98146.53;8482590;28;20225;-74
2022/08/31 01:47:38;;;;;;;7.50;4.90;;;;;;;21.51;50.25;98143.69;8482462;28;20372;-74
2022/08/31 01:51:42;;;;;;;6.87;4.90;;;;;;;21.53;50.22;98148.84;8482107;28;20237;-73
2022/08/31 01:55:46;;;;;;;6.10;4.80;;;;;;;21.52;50.46;98148.00;8481249;28;20233;-74
2022/08/31 01:59:49;;;;;;;8.57;4.50;;;;;;;21.48;50.53;98147.44;8481759;28;20422;-74
2022/08/31 02:03:52;;;;;;;6.20;4.77;;;;;;;21.44;50.22;98145.22;8481830;28;20232;-73
2022/08/31 02:07:58;;;;;;;6.53;4.63;;;;;;;21.48;50.55;98144.81;8481895;28;20536;-74
2022/08/31 02:12:03;;;;;;;8.33;4.60;;;;;;;21.39;50.48;98139.47;8481373;28;20225;-74
2022/08/31 02:16:06;;;;;;;11.07;5.03;;;;;;;21.33;50.99;98132.09;8481615;28;20236;-74
2022/08/31 02:20:10;;;;;;;7.93;4.60;;;;;;;21.40;50.65;98133.22;8481700;28;20422;-74
2022/08/31 02:24:13;;;;;;;8.43;5.13;;;;;;;21.35;50.57;98130.16;8481393;28;20229;-74
2022/08/31 02:28:18;;;;;;;6.27;4.63;;;;;;;21.41;50.62;98134.91;8481439;28;20514;-74
2022/08/31 02:32:21;;;;;;;7.50;5.10;;;;;;;21.34;50.81;98128.47;8481155;28;20255;-74
2022/08/31 02:36:24;;;;;;;5.80;5.10;;;;;;;21.38;50.93;98130.75;8480988;28;20235;-74
2022/08/31 02:40:27;;;;;;;8.43;4.90;;;;;;;21.35;50.74;98132.81;8481131;28;20356;-74
2022/08/31 02:44:31;;;;;;;6.77;5.23;;;;;;;21.35;50.84;98141.53;8480930;28;20232;-74
2022/08/31 02:48:35;;;;;;;7.67;4.73;;;;;;;21.31;50.91;98137.50;8481001;27;20614;-74
2022/08/31 02:52:38;;;;;;;6.63;4.83;;;;;;;21.28;50.67;98135.97;8480744;28;20237;-74
2022/08/31 02:56:41;;;;;;;5.03;4.53;;;;;;;21.35;50.91;98138.06;8480652;28;20233;-74
2022/08/31 03:00:46;;;;;;;7.80;4.40;;;;;;;21.25;50.87;98127.50;8480744;28;20225;-74
2022/08/31 03:04:49;;;;;;;5.40;4.60;;;;;;;21.29;50.74;98137.63;8480460;28;20254;-74
2022/08/31 03:08:52;;;;;;;6.80;4.70;;;;;;;21.26;50.84;98135.25;8487436;27;20225;-74
2022/08/31 03:12:55;;;;;;;7.37;4.70;;;;;;;21.24;51.17;98136.34;8487389;28;20225;-74
2022/08/31 03:16:59;;;;;;;9.63;5.00;;;;;;;21.22;50.89;98128.56;8487390;28;20233;-74
2022/08/31 03:21:02;;;;;;;7.10;4.63;;;;;;;21.09;51.01;98128.81;8487220;28;20239;-74
2022/08/31 03:25:06;;;;;;;9.10;5.10;;;;;;;21.15;51.18;98127.44;8486991;28;20240;-74
2022/08/31 03:29:09;;;;;;;7.10;4.60;;;;;;;21.12;51.11;98127.69;8487120;28;20417;-74
2022/08/31 03:33:15;;;;;;;4.77;4.27;;;;;;;21.19;51.16;98118.31;8486830;28;20229;-74
2022/08/31 03:37:20;;;;;;;8.47;4.77;;;;;;;21.13;51.21;98121.44;8486754;27;20255;-74
2022/08/31 03:41:24;;;;;;;4.90;4.40;;;;;;;21.13;51.16;98131.16;8486463;28;20236;-74
2022/08/31 03:45:28;;;;;;;5.50;4.70;;;;;;;21.11;51.53;98133.09;8486530;28;20232;-74
2022/08/31 03:49:32;;;;;;;7.63;4.80;;;;;;;21.15;50.97;98124.81;8486422;28;20240;-74
2022/08/31 03:53:36;;;;;;;5.67;4.43;;;;;;;21.11;50.94;98131.28;8486280;28;20226;-74
2022/08/31 03:57:39;;;;;;;7.67;4.47;;;;;;;21.08;51.54;98139.47;8485879;28;20232;-74
2022/08/31 04:01:42;;;;;;;5.17;4.50;;;;;;;21.06;51.18;98136.13;8486053;27;20244;-74
2022/08/31 04:05:46;;;;;;;7.23;4.70;;;;;;;21.05;51.41;98140.53;8485900;27;20229;-74
2022/08/31 04:09:49;;;;;;;6.53;4.63;;;;;;;21.07;51.51;98149.13;8485295;27;20224;-74
2022/08/31 04:13:52;;;;;;;6.83;4.50;;;;;;;21.04;51.33;98143.31;8485500;27;20229;-74
2022/08/31 04:17:55;;;;;;;6.57;4.40;;;;;;;21.02;50.82;98150.53;8484575;28;20235;-74
2022/08/31 04:22:00;;;;;;;5.93;4.43;;;;;;;21.05;50.92;98150.25;8485255;28;20300;-74
2022/08/31 04:26:03;;;;;;;8.13;4.40;;;;;;;21.03;51.12;98146.91;8485118;28;20563;-74
2022/08/31 04:30:07;;;;;;;6.53;4.50;;;;;;;21.04;51.15;98144.16;8484880;28;20252;-74
2022/08/31 04:34:10;;;;;;;6.07;4.30;;;;;;;20.98;51.40;98135.91;8485024;28;20263;-74
2022/08/31 04:38:14;;;;;;;7.27;4.53;;;;;;;20.97;51.45;98136.91;8484783;28;20233;-74
2022/08/31 04:42:20;;;;;;;8.07;4.70;;;;;;;20.99;51.91;98138.44;8484681;27;20225;-74
2022/08/31 04:46:23;;;;;;;5.77;4.77;;;;;;;21.01;51.47;98139.13;8484325;28;20428;-75
2022/08/31 04:50:26;;;;;;;7.60;4.20;;;;;;;21.03;51.54;98147.72;8484271;28;20293;-74
2022/08/31 04:54:30;;;;;;;8.50;4.60;;;;;;;21.03;51.61;98154.81;8484196;27;20228;-74
2022/08/31 04:58:33;;;;;;;5.53;4.50;;;;;;;21.02;51.52;98156.59;8484017;27;20229;-74
2022/08/31 05:02:37;;;;;;;8.07;4.20;;;;;;;21.05;51.76;98168.66;8483957;27;20232;-74
2022/08/31 05:06:42;;;;;;;9.30;4.67;;;;;;;20.98;51.44;98164.88;8483670;27;20232;-75
2022/08/31 05:10:47;;;;;;;9.40;4.63;;;;;;;20.99;51.75;98171.81;8483675;28;20222;-75
2022/08/31 05:14:50;;;;;;;9.63;4.70;;;;;;;21.00;51.70;98176.09;8482801;27;20424;-74
2022/08/31 05:18:52;;;;;;;6.67;4.93;;;;;;;21.02;52.04;98168.94;8483300;28;20225;-74
2022/08/31 05:22:55;;;;;;;11.87;4.90;;;;;;;21.02;51.92;98174.22;8483138;27;20230;-74
2022/08/31 05:26:59;;;;;;;4.73;3.90;;;;;;;21.04;52.05;98164.38;8483068;28;20258;-74
2022/08/31 05:31:03;;;;;;;5.03;4.23;;;;;;;21.09;51.80;98173.56;8481690;28;20516;-74
2022/08/31 05:35:06;;;;;;;5.20;4.70;;;;;;;21.06;52.31;98176.44;8482897;27;20233;-75
2022/08/31 05:39:10;;;;;;;6.30;4.70;;;;;;;21.07;52.08;98172.81;8482653;28;20230;-74
2022/08/31 05:43:15;;;;;;;7.37;4.90;;;;;;;21.16;51.73;98178.31;8482599;28;20231;-74
2022/08/31 05:47:18;;;;;;;10.57;5.13;;;;;;;21.06;52.06;98175.63;8482433;28;20233;-74
2022/08/31 05:51:21;;;;;;;8.87;4.93;;;;;;;21.18;51.87;98179.00;8482179;28;20235;-74
2022/08/31 05:55:24;;;;;;;7.90;5.10;;;;;;;21.17;52.07;98180.81;8482184;28;20232;-74
2022/08/31 05:59:29;;;;;;;8.17;4.80;;;;;;;21.27;51.68;98191.41;8481718;27;20230;-74
2022/08/31 06:03:32;;;;;;;7.20;4.93;;;;;;;21.41;51.05;98185.78;8481879;28;20228;-74
2022/08/31 06:07:35;;;;;;;6.03;4.60;;;;;;;21.43;51.45;98189.13;8481955;28;20229;-74
2022/08/31 06:11:41;;;;;;;6.33;4.60;;;;;;;21.42;51.79;98186.63;8481807;28;20232;-74
2022/08/31 06:15:45;;;;;;;8.67;4.73;;;;;;;21.54;51.22;98180.31;8481411;27;20539;-74
2022/08/31 06:19:50;;;;;;;10.00;5.03;;;;;;;21.51;50.71;98182.38;8481088;28;20227;-74
2022/08/31 06:23:54;;;;;;;7.47;4.70;;;;;;;21.45;51.41;98189.84;8481347;27;20239;-74
2022/08/31 06:27:58;;;;;;;6.43;4.43;;;;;;;21.36;51.05;98182.72;8481260;28;20466;-74
2022/08/31 06:32:06;;;;;;;7.00;4.43;;;;;;;21.47;50.61;98193.19;8481092;28;20404;-74
2022/08/31 06:36:11;;;;;;;12.13;4.73;;;;;;;21.50;51.02;98194.75;8481259;27;20221;-74
2022/08/31 06:40:14;;;;;;;9.03;4.30;;;;;;;21.57;50.81;98190.63;8480740;28;20233;-75
2022/08/31 06:44:19;;;;;;;6.07;4.53;;;;;;;21.51;50.25;98199.03;8481114;28;20225;-74
2022/08/31 06:48:24;;;;;;;10.57;4.43;;;;;;;21.53;50.80;98202.38;8480780;28;20577;-74
2022/08/31 06:52:28;;;;;;;7.40;4.40;;;;;;;21.54;50.58;98204.03;8480743;28;20239;-74
2022/08/31 06:56:31;;;;;;;10.10;4.70;;;;;;;21.60;50.92;98200.03;8480651;28;20235;-74
2022/08/31 07:00:35;;;;;;;5.80;4.53;;;;;;;21.59;50.55;98209.75;8480552;28;20221;-75
2022/08/31 07:04:41;;;;;;;8.33;4.73;;;;;;;21.60;50.60;98213.22;8480840;28;20402;-74
2022/08/31 07:08:45;;;;;;;7.40;4.40;;;;;;;21.64;50.02;98204.91;8480343;28;20235;-74
2022/08/31 07:12:47;;;;;;;9.97;5.00;;;;;;;21.75;50.22;98203.16;8479935;28;20221;-74
2022/08/31 07:16:52;;;;;;;9.40;4.33;;;;;;;21.77;50.42;98206.50;8480065;28;20236;-74
2022/08/31 07:20:56;;;;;;;11.40;4.93;;;;;;;21.80;50.07;98211.50;8480439;28;20332;-73
2022/08/31 07:25:00;;;;;;;7.00;4.83;;;;;;;21.83;49.76;98214.69;8480150;28;20235;-73
2022/08/31 07:29:05;;;;;;;5.97;3.80;;;;;;;21.91;49.49;98219.31;8480191;28;20236;-74
2022/08/31 07:33:09;;;;;;;6.80;4.10;;;;;;;21.95;49.96;98219.88;8480227;28;20232;-74
2022/08/31 07:45:54;;;;;;;5.67;4.30;;;;;;;21.99;49.59;98227.41;8479274;28;20239;-74
2022/08/31 07:49:59;;;;;;;4.23;3.73;;;;;;;22.08;49.33;98225.75;8479753;28;20241;-74
2022/08/31 07:54:05;;;;;;;6.53;4.20;;;;;;;22.03;49.44;98231.44;8483224;28;20240;-74
2022/08/31 07:58:14;;;;;;;6.30;3.87;;;;;;;22.09;49.05;98235.34;8485932;28;20234;-74
2022/08/31 08:02:17;;;;;;;6.43;3.40;;;;;;;22.22;48.83;98235.94;8485592;28;20266;-74
2022/08/31 08:06:20;;;;;;;6.83;4.07;;;;;;;22.25;49.10;98235.66;8485468;28;20225;-74
2022/08/31 08:10:26;;;;;;;6.90;4.00;;;;;;;22.13;49.03;98234.09;8485409;28;20435;-74
2022/08/31 08:14:29;;;;;;;7.97;4.30;;;;;;;22.32;48.45;98240.44;8485515;28;20259;-74
2022/08/31 08:18:32;;;;;;;10.83;3.97;;;;;;;22.22;49.64;98245.66;8485136;28;20228;-74
2022/08/31 08:22:37;;;;;;;8.27;3.77;;;;;;;22.32;48.64;98243.91;8485117;28;20232;-74
2022/08/31 08:26:55;;;;;;;5.73;3.87;;;;;;;22.57;48.15;98252.28;8484749;28;20232;-74
2022/08/31 08:31:00;;;;;;;7.10;3.57;;;;;;;22.78;47.88;98258.25;8485183;28;20243;-74
2022/08/31 08:35:04;;;;;;;7.83;3.97;;;;;;;22.78;47.61;98250.34;8485011;28;20532;-74
2022/08/31 08:39:09;;;;;;;8.00;3.80;;;;;;;22.86;47.59;98252.28;8484764;27;23206;-74
2022/08/31 08:43:18;;;;;;;3.73;3.40;;;;;;;23.13;47.14;98253.41;8484702;27;20292;-74
2022/08/31 08:47:27;;;;;;;5.17;4.03;;;;;;;23.25;46.44;98256.72;8484546;28;20236;-74
2022/08/31 08:51:40;;;;;;;8.27;3.70;;;;;;;23.37;46.24;98252.97;8484029;28;20399;-74
2022/08/31 08:55:43;;;;;;;5.73;3.57;;;;;;;23.61;45.47;98253.34;8484221;28;20234;-75
2022/08/31 08:59:49;;;;;;;4.93;3.47;;;;;;;23.94;44.85;98258.25;8483993;28;20234;-75
2022/08/31 09:04:00;;;;;;;5.17;3.30;;;;;;;24.14;44.09;98251.06;8483369;28;20262;-75
2022/08/31 09:08:31;;;;;;;6.80;3.37;;;;;;;24.14;44.61;98251.91;8483914;28;20259;-75
2022/08/31 09:12:43;;;;;;;3.60;3.27;;;;;;;24.27;44.20;98256.00;8483784;27;20241;-75
2022/08/31 09:16:55;;;;;;;5.23;3.40;;;;;;;24.35;44.07;98259.59;8483552;28;20240;-74
2022/08/31 09:21:07;;;;;;;5.13;3.20;;;;;;;24.47;43.18;98254.91;8483263;28;20226;-75
2022/08/31 09:25:09;;;;;;;7.97;3.23;;;;;;;24.76;42.91;98264.50;8483070;28;20231;-74
2022/08/31 09:29:20;;;;;;;7.10;3.20;;;;;;;24.86;42.55;98251.19;8483381;27;20229;-75
2022/08/31 09:33:27;;;;;;;5.97;3.10;;;;;;;25.01;42.03;98252.31;8483005;27;20270;-75
2022/08/31 09:37:33;;;;;;;3.53;3.20;;;;;;;25.20;41.90;98250.47;8482886;28;20239;-75
2022/08/31 09:41:36;;;;;;;10.70;3.33;;;;;;;25.50;41.65;98265.97;8482662;27;20546;-74
2022/08/31 09:45:48;;;;;;;4.50;2.80;;;;;;;25.84;40.13;98245.78;8482526;28;20240;-74
2022/08/31 09:49:56;;;;;;;5.70;3.50;;;;;;;25.92;39.85;98235.22;8481992;28;20231;-76
2022/08/31 09:58:29;;;;;;;6.60;3.30;;;;;;;26.46;38.77;98238.38;8482221;27;20254;-74
2022/08/31 10:02:36;;;;;;;4.57;2.93;;;;;;;26.69;38.11;98249.28;8482264;28;20434;-75
2022/08/31 10:06:48;;;;;;;5.17;2.80;;;;;;;26.75;38.03;98234.50;8481968;27;20228;-76
2022/08/31 10:10:51;;;;;;;4.17;3.10;;;;;;;27.39;37.56;98236.50;8481284;28;20556;-75
2022/08/31 10:15:01;;;;;;;5.17;3.00;;;;;;;27.56;36.59;98232.81;8480703;28;20228;-76
2022/08/31 10:19:06;;;;;;;5.30;2.87;;;;;;;27.73;35.80;98230.09;8481393;27;20885;-75
2022/08/31 10:23:15;;;;;;;5.13;2.97;;;;;;;27.98;36.39;98231.69;8480973;28;20245;-75
2022/08/31 10:27:25;;;;;;;2.83;2.50;;;;;;;27.43;36.45;98235.97;8481141;28;20232;-75
2022/08/31 10:31:30;;;;;;;5.13;2.63;;;;;;;27.45;36.86;98235.81;8481063;28;20242;-75
2022/08/31 10:35:41;;;;;;;4.63;2.90;;;;;;;27.71;36.19;98234.78;8480858;28;20522;-75
2022/08/31 10:39:47;;;;;;;4.27;2.73;;;;;;;27.69;35.43;98238.41;8480765;28;20236;-75
2022/08/31 10:44:00;;;;;;;4.53;2.70;;;;;;;27.53;34.89;98241.13;8480324;28;20240;-75
2022/08/31 10:48:05;;;;;;;6.17;3.00;;;;;;;27.12;35.88;98233.16;8480479;28;20261;-75
2022/08/31 10:52:16;;;;;;;2.60;2.40;;;;;;;27.07;36.12;98232.84;8480404;28;20519;-75
2022/08/31 10:56:26;;;;;;;5.90;2.60;;;;;;;27.10;36.62;98232.50;8480188;28;20301;-75
2022/08/31 11:00:48;;;;;;;6.17;3.07;;;;;;;26.95;36.42;98237.66;8480177;28;20586;-75
2022/08/31 11:04:57;;;;;;;4.93;3.20;;;;;;;26.57;36.88;98236.44;8479832;28;20222;-75
2022/08/31 11:09:04;;;;;;;3.43;2.70;;;;;;;26.55;36.89;98231.28;8480402;28;20335;-75
2022/08/31 11:13:19;;;;;;;3.33;2.63;;;;;;;26.27;37.86;98231.56;8480149;28;20240;-75
2022/08/31 11:17:33;;;;;;;5.30;2.70;;;;;;;26.32;37.69;98228.41;8480249;28;20531;-74
2022/08/31 11:22:13;;;;;;;2.93;2.43;;;;;;;26.12;38.40;98226.03;8479963;28;20239;-75
2022/08/31 11:26:45;;;;;;;5.77;2.90;;;;;;;26.06;38.53;98229.31;8449064;28;20228;-75
2022/08/31 11:30:55;;;;;;;3.93;3.40;;;;;;;25.85;38.72;98228.84;8486282;28;20224;-74
2022/08/31 11:35:08;;;;;;;6.10;3.10;;;;;;;25.96;38.17;98225.94;8486476;28;20231;-74
2022/08/31 11:39:37;;;;;;;3.30;2.90;;;;;;;25.99;38.72;98230.94;8486248;28;20422;-74
2022/08/31 11:43:52;;;;;;;3.63;2.80;;;;;;;25.87;38.36;98226.88;8486290;27;20228;-75
2022/08/31 11:47:57;;;;;;;4.10;2.87;;;;;;;25.70;38.75;98223.31;8485770;28;20248;-74
2022/08/31 11:52:09;;;;;;;4.57;2.83;;;;;;;25.48;38.71;98219.41;8485798;27;20548;-74
2022/08/31 11:56:14;;;;;;;4.83;2.97;;;;;;;25.49;39.09;98218.38;8485968;28;20231;-74
2022/08/31 12:00:19;;;;;;;5.00;2.80;;;;;;;25.60;39.79;98217.28;8486191;28;20253;-74
2022/08/31 12:04:57;;;;;;;4.13;3.40;;;;;;;25.38;38.93;98223.94;8485845;27;20221;-74
2022/08/31 12:09:17;;;;;;;4.73;3.00;;;;;;;25.45;39.61;98223.16;8485930;28;20229;-75
2022/08/31 12:13:36;;;;;;;5.40;2.77;;;;;;;25.38;39.56;98224.81;8486018;27;20358;-75
2022/08/31 12:17:47;;;;;;;6.33;3.30;;;;;;;25.04;39.77;98227.34;8486876;27;20406;-76
2022/08/31 12:26:43;;;;;;;5.40;3.03;;;;;;;24.96;39.95;98220.16;8485599;27;20291;-76
2022/08/31 12:30:52;;;;;;;6.67;3.47;;;;;;;24.89;39.55;98229.69;8483605;28;20229;-74
2022/08/31 12:35:00;;;;;;;3.37;2.87;;;;;;;25.00;40.25;98221.50;8485763;28;20266;-75
2022/08/31 12:39:10;;;;;;;3.90;3.20;;;;;;;24.87;39.76;98232.50;8483781;27;20249;-78
2022/08/31 12:43:16;;;;;;;4.43;2.93;;;;;;;24.92;40.04;98232.03;8484774;28;20513;-74
2022/08/31 12:47:25;;;;;;;6.07;3.20;;;;;;;24.81;40.18;98230.47;8484921;28;20242;-74
2022/08/31 12:51:38;;;;;;;5.37;3.17;;;;;;;24.78;40.94;98226.28;8484088;27;20234;-74
2022/08/31 12:55:49;;;;;;;4.87;3.03;;;;;;;24.92;41.23;98229.38;8484396;27;20293;-74
2022/08/31 12:59:57;;;;;;;5.03;3.00;;;;;;;24.87;40.48;98232.50;8483752;28;20334;-77
2022/08/31 13:04:03;;;;;;;3.20;2.90;;;;;;;24.83;40.69;98232.94;8483849;27;20239;-74
2022/08/31 13:08:20;;;;;;;5.90;3.00;;;;;;;24.88;41.99;98228.84;8483567;27;20231;-73
2022/08/31 13:12:24;;;;;;;3.70;3.30;;;;;;;24.96;41.42;98221.00;8483761;28;20233;-72
2022/08/31 13:16:27;;;;;;;5.90;3.53;;;;;;;24.76;41.29;98219.47;8483777;27;20236;-73
2022/08/31 13:20:41;;;;;;;5.93;3.37;;;;;;;24.85;41.51;98215.09;8483468;28;20548;-73
2022/08/31 13:24:46;;;;;;;4.70;3.30;;;;;;;24.94;41.25;98217.66;8483192;28;20331;-74
2022/08/31 13:29:00;;;;;;;4.70;3.67;;;;;;;24.89;41.76;98221.75;8483153;28;20227;-73
2022/08/31 13:33:20;;;;;;;4.30;3.30;;;;;;;24.90;41.24;98216.31;8483130;28;20240;-71
2022/08/31 13:37:28;;;;;;;4.50;3.30;;;;;;;24.68;40.64;98214.13;8482553;28;20229;-72
2022/08/31 13:41:34;;;;;;;3.57;3.10;;;;;;;24.82;41.01;98210.09;8482607;27;20230;-72
2022/08/31 13:45:41;;;;;;;3.87;3.20;;;;;;;24.84;41.37;98208.94;8482722;28;20429;-71
2022/08/31 13:49:47;;;;;;;6.40;3.60;;;;;;;24.43;41.51;98210.34;8481472;27;20427;-72
2022/08/31 13:54:06;;;;;;;4.97;3.43;;;;;;;24.62;41.25;98207.63;8481613;27;20549;-73
2022/08/31 13:58:24;;;;;;;3.67;3.33;;;;;;;24.93;41.77;98207.22;8482089;28;20243;-72
2022/08/31 14:02:34;;;;;;;7.43;3.97;;;;;;;24.68;41.13;98201.72;8482070;28;20239;-72
2022/08/31 14:06:40;;;;;;;4.90;3.90;;;;;;;24.56;41.50;98209.06;8481807;28;20290;-72
2022/08/31 14:10:46;;;;;;;4.13;3.67;;;;;;;24.70;42.75;98217.44;8481719;27;20288;-72
2022/08/31 14:14:49;;;;;;;4.47;3.50;;;;;;;24.63;41.82;98211.91;8481247;28;20224;-72
2022/08/31 14:18:55;;;;;;;5.43;3.70;;;;;;;24.55;42.19;98207.38;8481702;28;20222;-72
2022/08/31 14:22:57;;;;;;;5.80;3.90;;;;;;;24.46;42.03;98207.41;8481127;28;20248;-72
2022/08/31 14:27:01;;;;;;;7.73;3.57;;;;;;;24.75;42.26;98204.56;8481129;28;20230;-72
2022/08/31 14:31:10;;;;;;;3.90;3.20;;;;;;;24.92;42.25;98209.03;8481202;28;20437;-72
2022/08/31 14:35:15;;;;;;;6.73;3.13;;;;;;;25.19;41.90;98204.59;8481059;28;20233;-72
2022/08/31 14:39:20;;;;;;;5.77;3.27;;;;;;;25.39;41.73;98199.94;8480647;27;20229;-72
2022/08/31 14:43:23;;;;;;;7.70;3.13;;;;;;;25.59;41.16;98189.97;8481115;28;20327;-72
2022/08/31 14:47:28;;;;;;;3.87;3.33;;;;;;;25.46;40.91;98184.25;8480783;28;20228;-72
2022/08/31 14:51:32;;;;;;;6.77;3.57;;;;;;;25.58;40.98;98182.16;8480688;28;20243;-72
2022/08/31 14:55:37;;;;;;;5.97;3.30;;;;;;;25.36;40.72;98182.53;8480679;28;20231;-72
2022/08/31 14:59:44;;;;;;;5.77;3.23;;;;;;;25.44;40.68;98180.94;8480755;28;20304;-72
2022/08/31 15:03:48;;;;;;;7.00;3.47;;;;;;;25.17;41.51;98180.91;8479724;28;20221;-71
2022/08/31 15:07:53;;;;;;;4.97;3.50;;;;;;;25.22;41.98;98182.25;8480501;28;20231;-73
2022/08/31 15:12:00;;;;;;;5.30;3.40;;;;;;;25.02;41.29;98190.41;8480074;28;20230;-72
2022/08/31 15:16:03;;;;;;;8.97;3.63;;;;;;;24.92;41.26;98187.84;8480380;28;20303;-73
2022/08/31 15:20:10;;;;;;;3.47;3.10;;;;;;;24.88;41.71;98185.63;8480099;28;20338;-73
2022/08/31 15:24:14;;;;;;;5.07;3.30;;;;;;;24.90;42.01;98189.81;8480091;28;20580;-72
2022/08/31 15:28:17;;;;;;;5.87;3.20;;;;;;;24.95;42.04;98192.81;8480105;28;20240;-72
2022/08/31 15:32:21;;;;;;;4.97;3.00;;;;;;;24.83;42.11;98191.41;8480121;28;20233;-73
2022/08/31 15:36:25;;;;;;;5.03;3.20;;;;;;;24.37;42.90;98188.81;8479987;28;20229;-73
2022/08/31 15:40:33;;;;;;;4.97;3.30;;;;;;;24.46;42.86;98197.66;8479962;28;20242;-73
2022/08/31 15:44:42;;;;;;;7.90;2.90;;;;;;;24.09;43.24;98201.25;8479843;28;20255;-73
2022/08/31 15:48:45;;;;;;;10.33;3.20;;;;;;;23.96;44.00;98200.75;8479726;28;20232;-74
2022/08/31 15:52:49;;;;;;;5.23;3.40;;;;;;;23.42;44.50;98192.59;8479359;28;20295;-71
2022/08/31 15:56:56;;;;;;;4.63;3.03;;;;;;;23.48;44.05;98196.50;8479421;28;20239;-72
2022/08/31 16:01:00;;;;;;;4.47;2.90;;;;;;;23.22;44.62;98195.28;8479760;28;20420;-73
2022/08/31 16:05:08;;;;;;;9.50;3.80;;;;;;;23.21;45.07;98191.00;8479606;28;20243;-70
2022/08/31 16:09:11;;;;;;;6.70;3.30;;;;;;;23.31;44.61;98192.78;8479632;28;20235;-70
2022/08/31 16:13:16;;;;;;;4.40;2.93;;;;;;;23.36;44.57;98203.72;8480259;28;20333;-70
2022/08/31 16:17:19;;;;;;;6.23;2.70;;;;;;;23.22;44.39;98197.91;8485219;28;20245;-72
2022/08/31 16:21:22;;;;;;;4.40;2.80;;;;;;;23.47;44.30;98192.16;8485378;28;20417;-72
2022/08/31 16:25:29;;;;;;;4.17;2.70;;;;;;;23.54;44.16;98190.63;8485317;28;20230;-72
2022/08/31 16:29:52;;;;;;;3.57;2.70;;;;;;;23.61;43.79;98197.00;8484823;28;20234;-72
2022/08/31 16:33:55;;;;;;;3.43;2.43;;;;;;;23.73;43.99;98195.00;8484981;28;20557;-72
2022/08/31 16:37:59;;;;;;;5.20;2.50;;;;;;;23.82;44.14;98196.78;8485087;27;20230;-73
2022/08/31 16:42:03;;;;;;;5.47;2.80;;;;;;;23.47;44.71;98198.28;8484937;28;20238;-73
2022/08/31 16:46:08;;;;;;;4.00;2.70;;;;;;;23.22;44.79;98205.03;8484632;28;20221;-73
2022/08/31 16:50:31;;;;;;;3.30;2.63;;;;;;;23.18;45.79;98203.66;8484327;28;20237;-73
2022/08/31 16:54:34;;;;;;;5.80;2.90;;;;;;;23.00;45.37;98201.69;8484346;27;20237;-73
2022/08/31 16:58:38;;;;;;;5.80;2.73;;;;;;;22.88;45.58;98212.53;8483842;28;20247;-72
2022/08/31 17:02:55;;;;;;;3.50;2.50;;;;;;;22.73;45.98;98205.06;8483521;27;20525;-72
2022/08/31 17:06:58;;;;;;;4.07;2.97;;;;;;;22.91;46.16;98209.63;8483935;27;20236;-73
2022/08/31 17:11:01;;;;;;;3.03;2.73;;;;;;;22.75;46.33;98212.81;8483700;27;20226;-74
2022/08/31 17:15:05;;;;;;;5.27;2.50;;;;;;;22.60;46.11;98215.88;8484095;28;20236;-74
2022/08/31 17:19:12;;;;;;;3.93;2.53;;;;;;;22.63;46.36;98225.31;8483696;27;20229;-74
2022/08/31 17:23:17;;;;;;;3.03;2.50;;;;;;;22.67;46.37;98229.34;8483371;27;20229;-73
2022/08/31 17:27:21;;;;;;;5.47;2.80;;;;;;;22.33;47.12;98228.88;8483181;27;20233;-74
2022/08/31 17:31:25;;;;;;;6.37;3.00;;;;;;;22.31;47.11;98236.09;8483185;28;20233;-74
2022/08/31 17:35:30;;;;;;;3.27;2.97;;;;;;;22.33;46.91;98236.81;8482891;28;20427;-73
2022/08/31 17:39:34;;;;;;;4.33;2.80;;;;;;;22.21;47.56;98243.97;8482966;27;20245;-73
2022/08/31 17:43:38;;;;;;;5.03;2.53;;;;;;;22.27;47.53;98248.72;8482714;27;20226;-73
2022/08/31 17:47:40;;;;;;;10.90;2.53;;;;;;;22.12;47.87;98248.25;8482778;27;20225;-73
2022/08/31 17:51:46;;;;;;;4.93;2.73;;;;;;;22.12;47.85;98250.88;8482460;27;20240;-73
2022/08/31 17:55:53;;;;;;;4.70;2.97;;;;;;;22.24;47.40;98256.91;8481921;27;20217;-73
2022/08/31 17:59:56;;;;;;;2.77;2.57;;;;;;;22.12;48.01;98257.97;8481967;28;20236;-73
2022/08/31 18:04:00;;;;;;;3.67;2.70;;;;;;;22.20;47.86;98261.59;8482228;28;20234;-71
2022/08/31 18:08:05;;;;;;;3.93;2.77;;;;;;;22.09;47.79;98268.78;8481868;28;20240;-73
2022/08/31 18:12:08;;;;;;;2.83;2.40;;;;;;;22.15;47.77;98276.16;8482028;28;20555;-73
2022/08/31 18:16:13;;;;;;;6.43;2.90;;;;;;;22.13;47.75;98289.47;8481596;27;20243;-73
2022/08/31 18:20:16;;;;;;;4.43;2.80;;;;;;;22.09;48.00;98284.63;8481707;27;20512;-72
2022/08/31 18:24:20;;;;;;;3.40;2.53;;;;;;;22.08;48.24;98294.31;8481050;28;20237;-72
2022/08/31 18:28:23;;;;;;;4.17;2.57;;;;;;;21.92;48.77;98294.81;8481194;28;20229;-73
2022/08/31 18:32:27;;;;;;;4.10;2.80;;;;;;;21.89;48.87;98291.59;8481338;28;20250;-73
2022/08/31 18:36:37;;;;;;;5.27;2.83;;;;;;;22.05;48.33;98294.59;8480615;28;20225;-72
2022/08/31 18:45:18;;;;;;;4.97;3.10;;;;;;;21.85;48.66;98305.03;8480802;28;20613;-73
2022/08/31 18:49:21;;;;;;;5.13;2.80;;;;;;;21.76;49.27;98305.84;8480551;28;20245;-73
2022/08/31 18:53:25;;;;;;;3.83;2.73;;;;;;;21.87;49.14;98307.53;8480427;28;20234;-75
2022/08/31 18:57:33;;;;;;;4.10;2.90;;;;;;;21.98;49.09;98304.81;8480458;28;20535;-75
2022/08/31 19:01:50;;;;;;;2.90;2.70;;;;;;;22.11;48.35;98314.31;8471851;28;20226;-74
2022/08/31 19:05:53;;;;;;;5.33;2.67;;;;;;;21.85;48.93;98307.66;8480224;28;20227;-74
2022/08/31 19:09:57;;;;;;;5.07;3.07;;;;;;;21.82;49.57;98309.75;8480326;28;20225;-72
2022/08/31 19:14:01;;;;;;;3.23;2.90;;;;;;;22.07;48.71;98313.75;8480203;28;20240;-74
2022/08/31 19:18:05;;;;;;;3.87;3.00;;;;;;;21.96;49.32;98313.84;8480328;28;20295;-73
2022/08/31 19:22:08;;;;;;;3.63;2.80;;;;;;;22.06;49.12;98312.06;8479803;28;20237;-78
2022/08/31 19:26:18;;;;;;;6.37;3.13;;;;;;;22.01;48.89;98316.91;8479959;28;20221;-75
2022/08/31 19:30:23;;;;;;;3.90;3.20;;;;;;;22.05;49.27;98315.69;8480022;28;20230;-73
2022/08/31 19:34:32;;;;;;;5.37;3.00;;;;;;;22.00;49.41;98307.31;8480083;28;20233;-73
2022/08/31 19:38:34;;;;;;;5.17;3.10;;;;;;;21.92;49.23;98308.00;8480014;28;20236;-73
2022/08/31 19:42:38;;;;;;;4.53;2.93;;;;;;;21.82;49.48;98309.75;8479332;28;20233;-71
2022/08/31 19:47:06;;;;;;;4.23;3.10;;;;;;;21.76;50.08;98308.47;8471072;28;20262;-73